sensor_id;sensor_type;location;lat;lon;timestamp;P1;durP1;ratioP1;P2;durP2;ratioP2
25982;SDS011;13773;48.868;10.730;2023-06-22T00:00:55;8.67;;;7.87;;
25982;SDS011;13773;48.868;10.730;2023-06-22T00:03:21;13.40;;;9.30;;
25982;SDS011;13773;48.868;10.730;2023-06-22T00:05:49;9.83;;;7.90;;
25982;SDS011;13773;48.868;10.730;2023-06-22T00:08:15;9.33;;;7.93;;
25982;SDS011;13773;48.868;10.730;2023-06-22T00:10:42;9.03;;;7.90;;
25982;SDS011;13773;48.868;10.730;2023-06-22T00:13:08;9.73;;;8.13;;
25982;SDS011;13773;48.868;10.730;2023-06-22T00:15:35;12.10;;;8.87;;
25982;SDS011;13773;48.868;10.730;2023-06-22T00:18:03;9.60;;;7.80;;
25982;SDS011;13773;48.868;10.730;2023-06-22T00:20:30;9.90;;;8.50;;
25982;SDS011;13773;48.868;10.730;2023-06-22T00:22:56;9.83;;;8.47;;
25982;SDS011;13773;48.868;10.730;2023-06-22T00:25:23;11.03;;;8.43;;
25982;SDS011;13773;48.868;10.730;2023-06-22T00:27:49;11.30;;;8.60;;
25982;SDS011;13773;48.868;10.730;2023-06-22T00:30:15;9.37;;;8.03;;
25982;SDS011;13773;48.868;10.730;2023-06-22T00:32:42;9.60;;;8.70;;
25982;SDS011;13773;48.868;10.730;2023-06-22T00:35:08;9.20;;;8.13;;
25982;SDS011;13773;48.868;10.730;2023-06-22T00:37:38;10.70;;;9.20;;
25982;SDS011;13773;48.868;10.730;2023-06-22T00:40:07;9.77;;;8.77;;
25982;SDS011;13773;48.868;10.730;2023-06-22T00:42:40;9.97;;;8.63;;
25982;SDS011;13773;48.868;10.730;2023-06-22T00:45:06;10.50;;;8.67;;
25982;SDS011;13773;48.868;10.730;2023-06-22T00:47:33;10.73;;;8.90;;
25982;SDS011;13773;48.868;10.730;2023-06-22T00:50:00;12.20;;;8.40;;
25982;SDS011;13773;48.868;10.730;2023-06-22T00:52:28;10.80;;;9.70;;
25982;SDS011;13773;48.868;10.730;2023-06-22T00:54:58;11.30;;;9.00;;
25982;SDS011;13773;48.868;10.730;2023-06-22T00:57:26;10.80;;;9.57;;
25982;SDS011;13773;48.868;10.730;2023-06-22T00:59:53;13.40;;;9.00;;
25982;SDS011;13773;48.868;10.730;2023-06-22T01:02:19;10.80;;;9.27;;
25982;SDS011;13773;48.868;10.730;2023-06-22T01:04:45;10.93;;;9.80;;
25982;SDS011;13773;48.868;10.730;2023-06-22T01:10:07;13.73;;;10.27;;
25982;SDS011;13773;48.868;10.730;2023-06-22T01:13:07;11.97;;;9.17;;
25982;SDS011;13773;48.868;10.730;2023-06-22T01:15:54;10.43;;;8.40;;
25982;SDS011;13773;48.868;10.730;2023-06-22T01:18:25;12.57;;;9.33;;
25982;SDS011;13773;48.868;10.730;2023-06-22T01:20:55;12.00;;;9.50;;
25982;SDS011;13773;48.868;10.730;2023-06-22T01:25:56;10.60;;;9.40;;
25982;SDS011;13773;48.868;10.730;2023-06-22T01:28:50;11.47;;;9.23;;
25982;SDS011;13773;48.868;10.730;2023-06-22T01:31:20;11.07;;;9.53;;
25982;SDS011;13773;48.868;10.730;2023-06-22T01:33:53;13.47;;;10.13;;
25982;SDS011;13773;48.868;10.730;2023-06-22T01:36:21;13.13;;;9.90;;
25982;SDS011;13773;48.868;10.730;2023-06-22T01:38:48;11.20;;;10.10;;
25982;SDS011;13773;48.868;10.730;2023-06-22T01:41:15;11.67;;;10.43;;
25982;SDS011;13773;48.868;10.730;2023-06-22T01:43:42;13.60;;;10.87;;
25982;SDS011;13773;48.868;10.730;2023-06-22T01:46:09;11.93;;;9.90;;
25982;SDS011;13773;48.868;10.730;2023-06-22T01:48:36;10.93;;;9.70;;
25982;SDS011;13773;48.868;10.730;2023-06-22T01:51:02;13.40;;;9.93;;
25982;SDS011;13773;48.868;10.730;2023-06-22T01:53:28;11.27;;;10.17;;
25982;SDS011;13773;48.868;10.730;2023-06-22T01:55:54;10.93;;;9.83;;
25982;SDS011;13773;48.868;10.730;2023-06-22T01:58:23;13.40;;;9.40;;
25982;SDS011;13773;48.868;10.730;2023-06-22T02:01:06;11.43;;;9.53;;
25982;SDS011;13773;48.868;10.730;2023-06-22T02:03:37;11.73;;;9.23;;
25982;SDS011;13773;48.868;10.730;2023-06-22T02:06:21;10.07;;;9.10;;
25982;SDS011;13773;48.868;10.730;2023-06-22T02:08:55;11.50;;;9.40;;
25982;SDS011;13773;48.868;10.730;2023-06-22T02:11:24;10.73;;;9.13;;
25982;SDS011;13773;48.868;10.730;2023-06-22T02:13:52;11.57;;;9.57;;
25982;SDS011;13773;48.868;10.730;2023-06-22T02:16:20;11.20;;;9.07;;
25982;SDS011;13773;48.868;10.730;2023-06-22T02:18:49;11.03;;;8.50;;
25982;SDS011;13773;48.868;10.730;2023-06-22T02:21:19;10.03;;;8.03;;
25982;SDS011;13773;48.868;10.730;2023-06-22T02:23:45;10.00;;;8.50;;
25982;SDS011;13773;48.868;10.730;2023-06-22T02:26:11;11.57;;;8.20;;
25982;SDS011;13773;48.868;10.730;2023-06-22T02:28:37;8.13;;;7.33;;
25982;SDS011;13773;48.868;10.730;2023-06-22T02:31:03;11.53;;;9.00;;
25982;SDS011;13773;48.868;10.730;2023-06-22T02:33:29;8.90;;;8.00;;
25982;SDS011;13773;48.868;10.730;2023-06-22T02:35:55;9.77;;;8.77;;
25982;SDS011;13773;48.868;10.730;2023-06-22T02:38:21;11.30;;;8.80;;
25982;SDS011;13773;48.868;10.730;2023-06-22T02:40:48;12.83;;;8.67;;
25982;SDS011;13773;48.868;10.730;2023-06-22T02:43:14;9.97;;;8.73;;
25982;SDS011;13773;48.868;10.730;2023-06-22T02:45:39;11.67;;;8.77;;
25982;SDS011;13773;48.868;10.730;2023-06-22T02:48:05;9.77;;;8.73;;
25982;SDS011;13773;48.868;10.730;2023-06-22T02:50:31;10.10;;;9.03;;
25982;SDS011;13773;48.868;10.730;2023-06-22T02:52:57;10.70;;;8.93;;
25982;SDS011;13773;48.868;10.730;2023-06-22T02:55:23;13.67;;;8.73;;
25982;SDS011;13773;48.868;10.730;2023-06-22T02:57:49;10.07;;;8.90;;
25982;SDS011;13773;48.868;10.730;2023-06-22T03:00:17;10.37;;;9.17;;
25982;SDS011;13773;48.868;10.730;2023-06-22T03:02:45;11.40;;;9.50;;
25982;SDS011;13773;48.868;10.730;2023-06-22T03:05:14;11.70;;;8.53;;
25982;SDS011;13773;48.868;10.730;2023-06-22T03:07:43;10.40;;;9.30;;
25982;SDS011;13773;48.868;10.730;2023-06-22T03:10:09;11.60;;;8.90;;
25982;SDS011;13773;48.868;10.730;2023-06-22T03:12:37;10.63;;;9.10;;
25982;SDS011;13773;48.868;10.730;2023-06-22T03:15:14;10.93;;;9.83;;
25982;SDS011;13773;48.868;10.730;2023-06-22T03:17:42;12.77;;;9.40;;
25982;SDS011;13773;48.868;10.730;2023-06-22T03:20:08;10.20;;;8.80;;
25982;SDS011;13773;48.868;10.730;2023-06-22T03:22:36;11.70;;;10.03;;
25982;SDS011;13773;48.868;10.730;2023-06-22T03:25:06;13.50;;;10.37;;
25982;SDS011;13773;48.868;10.730;2023-06-22T03:27:36;11.07;;;9.17;;
25982;SDS011;13773;48.868;10.730;2023-06-22T03:30:01;11.33;;;9.93;;
25982;SDS011;13773;48.868;10.730;2023-06-22T03:32:27;11.17;;;9.97;;
25982;SDS011;13773;48.868;10.730;2023-06-22T03:34:53;14.67;;;10.23;;
25982;SDS011;13773;48.868;10.730;2023-06-22T03:37:19;11.17;;;9.73;;
25982;SDS011;13773;48.868;10.730;2023-06-22T03:39:45;11.07;;;9.97;;
25982;SDS011;13773;48.868;10.730;2023-06-22T03:42:10;15.33;;;11.10;;
25982;SDS011;13773;48.868;10.730;2023-06-22T03:44:36;14.77;;;11.17;;
25982;SDS011;13773;48.868;10.730;2023-06-22T03:47:05;11.97;;;9.87;;
25982;SDS011;13773;48.868;10.730;2023-06-22T03:49:32;13.70;;;11.67;;
25982;SDS011;13773;48.868;10.730;2023-06-22T03:51:59;12.87;;;11.03;;
25982;SDS011;13773;48.868;10.730;2023-06-22T03:54:26;12.70;;;10.70;;
25982;SDS011;13773;48.868;10.730;2023-06-22T03:56:52;14.53;;;11.13;;
25982;SDS011;13773;48.868;10.730;2023-06-22T03:59:18;13.50;;;11.43;;
25982;SDS011;13773;48.868;10.730;2023-06-22T04:01:43;12.30;;;10.73;;
25982;SDS011;13773;48.868;10.730;2023-06-22T04:04:09;12.17;;;10.90;;
25982;SDS011;13773;48.868;10.730;2023-06-22T04:06:35;11.80;;;10.00;;
25982;SDS011;13773;48.868;10.730;2023-06-22T04:09:01;11.90;;;10.77;;
25982;SDS011;13773;48.868;10.730;2023-06-22T04:11:27;11.20;;;10.10;;
25982;SDS011;13773;48.868;10.730;2023-06-22T04:13:53;12.97;;;10.77;;
25982;SDS011;13773;48.868;10.730;2023-06-22T04:16:19;10.03;;;9.03;;
25982;SDS011;13773;48.868;10.730;2023-06-22T04:18:44;11.60;;;9.37;;
25982;SDS011;13773;48.868;10.730;2023-06-22T04:21:10;12.57;;;9.37;;
25982;SDS011;13773;48.868;10.730;2023-06-22T04:23:36;10.60;;;9.50;;
25982;SDS011;13773;48.868;10.730;2023-06-22T04:26:01;11.13;;;9.17;;
25982;SDS011;13773;48.868;10.730;2023-06-22T04:28:27;9.63;;;8.73;;
25982;SDS011;13773;48.868;10.730;2023-06-22T04:30:53;9.70;;;8.70;;
25982;SDS011;13773;48.868;10.730;2023-06-22T04:33:23;9.50;;;8.50;;
25982;SDS011;13773;48.868;10.730;2023-06-22T04:35:48;9.70;;;8.40;;
25982;SDS011;13773;48.868;10.730;2023-06-22T04:38:15;14.80;;;9.43;;
25982;SDS011;13773;48.868;10.730;2023-06-22T04:40:41;9.97;;;8.77;;
25982;SDS011;13773;48.868;10.730;2023-06-22T04:43:07;9.23;;;8.40;;
25982;SDS011;13773;48.868;10.730;2023-06-22T04:45:35;9.77;;;8.77;;
25982;SDS011;13773;48.868;10.730;2023-06-22T04:48:03;10.43;;;8.80;;
25982;SDS011;13773;48.868;10.730;2023-06-22T04:50:29;10.73;;;9.63;;
25982;SDS011;13773;48.868;10.730;2023-06-22T04:52:55;11.00;;;9.90;;
25982;SDS011;13773;48.868;10.730;2023-06-22T04:55:20;11.20;;;9.00;;
25982;SDS011;13773;48.868;10.730;2023-06-22T04:57:47;11.10;;;9.70;;
25982;SDS011;13773;48.868;10.730;2023-06-22T05:00:19;11.03;;;9.93;;
25982;SDS011;13773;48.868;10.730;2023-06-22T05:02:48;10.53;;;9.47;;
25982;SDS011;13773;48.868;10.730;2023-06-22T05:05:14;11.17;;;10.07;;
25982;SDS011;13773;48.868;10.730;2023-06-22T05:07:44;11.33;;;10.10;;
25982;SDS011;13773;48.868;10.730;2023-06-22T05:10:13;11.43;;;9.27;;
25982;SDS011;13773;48.868;10.730;2023-06-22T05:12:39;11.87;;;9.37;;
25982;SDS011;13773;48.868;10.730;2023-06-22T05:15:08;9.80;;;8.80;;
25982;SDS011;13773;48.868;10.730;2023-06-22T05:17:34;9.23;;;8.33;;
25982;SDS011;13773;48.868;10.730;2023-06-22T05:20:01;8.73;;;7.93;;
25982;SDS011;13773;48.868;10.730;2023-06-22T05:22:27;8.97;;;7.40;;
25982;SDS011;13773;48.868;10.730;2023-06-22T05:24:53;10.93;;;8.17;;
25982;SDS011;13773;48.868;10.730;2023-06-22T05:27:19;7.80;;;7.10;;
25982;SDS011;13773;48.868;10.730;2023-06-22T05:29:45;9.73;;;8.45;;
25982;SDS011;13773;48.868;10.730;2023-06-22T05:32:10;9.35;;;7.88;;
25982;SDS011;13773;48.868;10.730;2023-06-22T05:34:36;9.25;;;7.70;;
25982;SDS011;13773;48.868;10.730;2023-06-22T05:37:02;9.43;;;7.38;;
25982;SDS011;13773;48.868;10.730;2023-06-22T05:39:28;8.02;;;7.32;;
25982;SDS011;13773;48.868;10.730;2023-06-22T05:41:54;7.90;;;7.07;;
25982;SDS011;13773;48.868;10.730;2023-06-22T05:44:19;7.97;;;7.28;;
25982;SDS011;13773;48.868;10.730;2023-06-22T05:46:45;7.82;;;7.20;;
25982;SDS011;13773;48.868;10.730;2023-06-22T05:49:13;8.93;;;7.30;;
25982;SDS011;13773;48.868;10.730;2023-06-22T05:51:39;8.15;;;7.43;;
25982;SDS011;13773;48.868;10.730;2023-06-22T05:54:05;7.93;;;7.22;;
25982;SDS011;13773;48.868;10.730;2023-06-22T05:56:31;8.07;;;6.80;;
25982;SDS011;13773;48.868;10.730;2023-06-22T05:58:57;7.28;;;6.70;;
25982;SDS011;13773;48.868;10.730;2023-06-22T06:01:22;9.40;;;6.93;;
25982;SDS011;13773;48.868;10.730;2023-06-22T06:03:50;7.57;;;6.82;;
25982;SDS011;13773;48.868;10.730;2023-06-22T06:06:17;7.63;;;6.90;;
25982;SDS011;13773;48.868;10.730;2023-06-22T06:08:45;7.50;;;6.75;;
25982;SDS011;13773;48.868;10.730;2023-06-22T06:11:11;6.95;;;6.35;;
25982;SDS011;13773;48.868;10.730;2023-06-22T06:13:36;7.43;;;6.68;;
25982;SDS011;13773;48.868;10.730;2023-06-22T06:16:02;7.03;;;6.13;;
25982;SDS011;13773;48.868;10.730;2023-06-22T06:18:29;6.38;;;5.75;;
25982;SDS011;13773;48.868;10.730;2023-06-22T06:21:09;6.80;;;5.95;;
25982;SDS011;13773;48.868;10.730;2023-06-22T06:23:35;9.38;;;6.53;;
25982;SDS011;13773;48.868;10.730;2023-06-22T06:26:01;7.80;;;6.63;;
25982;SDS011;13773;48.868;10.730;2023-06-22T06:28:26;6.50;;;5.90;;
25982;SDS011;13773;48.868;10.730;2023-06-22T06:30:52;6.20;;;5.60;;
25982;SDS011;13773;48.868;10.730;2023-06-22T06:33:18;6.65;;;6.03;;
25982;SDS011;13773;48.868;10.730;2023-06-22T06:35:46;6.68;;;5.40;;
25982;SDS011;13773;48.868;10.730;2023-06-22T06:38:11;8.85;;;6.13;;
25982;SDS011;13773;48.868;10.730;2023-06-22T06:40:37;6.47;;;5.82;;
25982;SDS011;13773;48.868;10.730;2023-06-22T06:43:04;6.47;;;5.72;;
25982;SDS011;13773;48.868;10.730;2023-06-22T06:45:31;6.18;;;5.25;;
25982;SDS011;13773;48.868;10.730;2023-06-22T06:47:59;6.80;;;5.38;;
25982;SDS011;13773;48.868;10.730;2023-06-22T06:50:28;5.97;;;5.07;;
25982;SDS011;13773;48.868;10.730;2023-06-22T06:52:54;6.65;;;5.05;;
25982;SDS011;13773;48.868;10.730;2023-06-22T06:55:21;6.68;;;5.65;;
25982;SDS011;13773;48.868;10.730;2023-06-22T06:57:50;9.77;;;4.43;;
25982;SDS011;13773;48.868;10.730;2023-06-22T07:00:17;5.13;;;4.63;;
25982;SDS011;13773;48.868;10.730;2023-06-22T07:02:44;6.75;;;4.60;;
25982;SDS011;13773;48.868;10.730;2023-06-22T07:05:13;4.40;;;4.00;;
25982;SDS011;13773;48.868;10.730;2023-06-22T07:07:39;5.38;;;4.43;;
25982;SDS011;13773;48.868;10.730;2023-06-22T07:10:06;4.78;;;4.13;;
25982;SDS011;13773;48.868;10.730;2023-06-22T07:12:32;5.82;;;4.00;;
25982;SDS011;13773;48.868;10.730;2023-06-22T07:15:07;6.38;;;4.03;;
25982;SDS011;13773;48.868;10.730;2023-06-22T07:17:34;4.93;;;3.90;;
25982;SDS011;13773;48.868;10.730;2023-06-22T07:20:01;6.97;;;5.00;;
25982;SDS011;13773;48.868;10.730;2023-06-22T07:22:29;4.68;;;3.90;;
25982;SDS011;13773;48.868;10.730;2023-06-22T07:24:58;7.53;;;4.90;;
25982;SDS011;13773;48.868;10.730;2023-06-22T07:27:25;4.40;;;3.92;;
25982;SDS011;13773;48.868;10.730;2023-06-22T07:29:52;8.15;;;4.40;;
25982;SDS011;13773;48.868;10.730;2023-06-22T07:32:20;4.75;;;3.65;;
25982;SDS011;13773;48.868;10.730;2023-06-22T07:34:45;4.47;;;4.05;;
25982;SDS011;13773;48.868;10.730;2023-06-22T07:37:11;5.22;;;3.92;;
25982;SDS011;13773;48.868;10.730;2023-06-22T07:39:37;6.45;;;3.78;;
25982;SDS011;13773;48.868;10.730;2023-06-22T07:42:03;7.68;;;4.13;;
25982;SDS011;13773;48.868;10.730;2023-06-22T07:44:29;8.48;;;3.92;;
25982;SDS011;13773;48.868;10.730;2023-06-22T07:46:55;7.47;;;3.92;;
25982;SDS011;13773;48.868;10.730;2023-06-22T07:49:23;9.18;;;4.30;;
25982;SDS011;13773;48.868;10.730;2023-06-22T07:52:04;8.30;;;4.50;;
25982;SDS011;13773;48.868;10.730;2023-06-22T07:54:31;4.15;;;3.70;;
25982;SDS011;13773;48.868;10.730;2023-06-22T07:56:57;4.10;;;3.28;;
25982;SDS011;13773;48.868;10.730;2023-06-22T07:59:23;6.88;;;3.75;;
25982;SDS011;13773;48.868;10.730;2023-06-22T08:01:48;6.03;;;3.90;;
25982;SDS011;13773;48.868;10.730;2023-06-22T08:04:14;5.80;;;3.78;;
25982;SDS011;13773;48.868;10.730;2023-06-22T08:06:40;4.93;;;3.55;;
25982;SDS011;13773;48.868;10.730;2023-06-22T08:09:10;6.57;;;3.72;;
25982;SDS011;13773;48.868;10.730;2023-06-22T08:11:35;6.28;;;3.85;;
25982;SDS011;13773;48.868;10.730;2023-06-22T08:14:02;5.45;;;3.70;;
25982;SDS011;13773;48.868;10.730;2023-06-22T08:16:35;5.45;;;3.60;;
25982;SDS011;13773;48.868;10.730;2023-06-22T08:19:01;4.80;;;3.65;;
25982;SDS011;13773;48.868;10.730;2023-06-22T08:21:29;6.55;;;4.18;;
25982;SDS011;13773;48.868;10.730;2023-06-22T08:23:56;5.25;;;4.13;;
25982;SDS011;13773;48.868;10.730;2023-06-22T08:26:29;5.22;;;4.18;;
25982;SDS011;13773;48.868;10.730;2023-06-22T08:28:55;7.50;;;3.83;;
25982;SDS011;13773;48.868;10.730;2023-06-22T08:31:20;4.82;;;3.88;;
25982;SDS011;13773;48.868;10.730;2023-06-22T08:33:46;6.40;;;3.90;;
25982;SDS011;13773;48.868;10.730;2023-06-22T08:36:12;5.20;;;3.97;;
25982;SDS011;13773;48.868;10.730;2023-06-22T08:38:38;5.35;;;4.18;;
25982;SDS011;13773;48.868;10.730;2023-06-22T08:41:04;7.10;;;4.10;;
25982;SDS011;13773;48.868;10.730;2023-06-22T08:43:30;5.07;;;4.00;;
25982;SDS011;13773;48.868;10.730;2023-06-22T08:45:56;5.25;;;3.88;;
25982;SDS011;13773;48.868;10.730;2023-06-22T08:48:21;5.88;;;3.88;;
25982;SDS011;13773;48.868;10.730;2023-06-22T08:50:47;6.75;;;4.20;;
25982;SDS011;13773;48.868;10.730;2023-06-22T08:53:13;6.68;;;4.32;;
25982;SDS011;13773;48.868;10.730;2023-06-22T08:55:38;7.03;;;4.30;;
25982;SDS011;13773;48.868;10.730;2023-06-22T08:58:04;7.13;;;4.50;;
25982;SDS011;13773;48.868;10.730;2023-06-22T09:00:30;8.45;;;4.57;;
25982;SDS011;13773;48.868;10.730;2023-06-22T09:02:59;8.02;;;4.47;;
25982;SDS011;13773;48.868;10.730;2023-06-22T09:05:25;6.88;;;4.50;;
25982;SDS011;13773;48.868;10.730;2023-06-22T09:07:51;8.23;;;4.60;;
25982;SDS011;13773;48.868;10.730;2023-06-22T09:10:17;8.23;;;4.72;;
25982;SDS011;13773;48.868;10.730;2023-06-22T09:12:43;7.07;;;4.53;;
25982;SDS011;13773;48.868;10.730;2023-06-22T09:15:09;5.95;;;4.68;;
25982;SDS011;13773;48.868;10.730;2023-06-22T09:17:35;6.63;;;4.35;;
25982;SDS011;13773;48.868;10.730;2023-06-22T09:20:01;5.80;;;4.50;;
25982;SDS011;13773;48.868;10.730;2023-06-22T09:22:30;6.53;;;4.60;;
25982;SDS011;13773;48.868;10.730;2023-06-22T09:24:56;8.63;;;4.82;;
25982;SDS011;13773;48.868;10.730;2023-06-22T09:27:22;7.68;;;5.10;;
25982;SDS011;13773;48.868;10.730;2023-06-22T09:29:49;6.70;;;4.90;;
25982;SDS011;13773;48.868;10.730;2023-06-22T09:32:16;7.32;;;5.20;;
25982;SDS011;13773;48.868;10.730;2023-06-22T09:34:42;9.80;;;4.97;;
25982;SDS011;13773;48.868;10.730;2023-06-22T09:37:08;9.10;;;5.00;;
25982;SDS011;13773;48.868;10.730;2023-06-22T09:39:33;9.15;;;4.85;;
25982;SDS011;13773;48.868;10.730;2023-06-22T09:41:59;8.13;;;5.07;;
25982;SDS011;13773;48.868;10.730;2023-06-22T09:44:25;7.82;;;5.15;;
25982;SDS011;13773;48.868;10.730;2023-06-22T09:46:51;7.25;;;5.07;;
25982;SDS011;13773;48.868;10.730;2023-06-22T09:49:17;10.60;;;5.28;;
25982;SDS011;13773;48.868;10.730;2023-06-22T09:51:42;8.52;;;5.10;;
25982;SDS011;13773;48.868;10.730;2023-06-22T09:54:08;7.45;;;5.15;;
25982;SDS011;13773;48.868;10.730;2023-06-22T09:56:34;8.57;;;5.78;;
25982;SDS011;13773;48.868;10.730;2023-06-22T09:59:00;7.35;;;4.82;;
25982;SDS011;13773;48.868;10.730;2023-06-22T10:01:25;7.38;;;4.97;;
25982;SDS011;13773;48.868;10.730;2023-06-22T10:03:55;8.70;;;4.70;;
25982;SDS011;13773;48.868;10.730;2023-06-22T10:06:21;7.88;;;5.15;;
25982;SDS011;13773;48.868;10.730;2023-06-22T10:08:47;8.32;;;4.60;;
25982;SDS011;13773;48.868;10.730;2023-06-22T10:11:15;8.20;;;5.32;;
25982;SDS011;13773;48.868;10.730;2023-06-22T10:13:40;9.23;;;5.03;;
25982;SDS011;13773;48.868;10.730;2023-06-22T10:16:06;6.97;;;5.47;;
25982;SDS011;13773;48.868;10.730;2023-06-22T10:18:32;6.32;;;5.00;;
25982;SDS011;13773;48.868;10.730;2023-06-22T10:21:36;8.35;;;4.63;;
25982;SDS011;13773;48.868;10.730;2023-06-22T10:24:01;9.43;;;5.25;;
25982;SDS011;13773;48.868;10.730;2023-06-22T10:26:31;7.43;;;4.68;;
25982;SDS011;13773;48.868;10.730;2023-06-22T10:28:58;7.65;;;4.55;;
25982;SDS011;13773;48.868;10.730;2023-06-22T10:31:24;5.93;;;4.72;;
25982;SDS011;13773;48.868;10.730;2023-06-22T10:33:50;8.80;;;5.07;;
25982;SDS011;13773;48.868;10.730;2023-06-22T10:36:16;8.23;;;4.93;;
25982;SDS011;13773;48.868;10.730;2023-06-22T10:38:42;7.03;;;5.05;;
25982;SDS011;13773;48.868;10.730;2023-06-22T10:41:07;7.03;;;4.78;;
25982;SDS011;13773;48.868;10.730;2023-06-22T10:43:33;8.50;;;5.18;;
25982;SDS011;13773;48.868;10.730;2023-06-22T10:46:04;10.80;;;5.18;;
25982;SDS011;13773;48.868;10.730;2023-06-22T10:48:30;8.70;;;6.10;;
25982;SDS011;13773;48.868;10.730;2023-06-22T10:50:55;8.80;;;5.22;;
25982;SDS011;13773;48.868;10.730;2023-06-22T10:53:21;11.93;;;5.18;;
25982;SDS011;13773;48.868;10.730;2023-06-22T10:55:47;11.73;;;5.30;;
25982;SDS011;13773;48.868;10.730;2023-06-22T10:58:13;8.85;;;5.30;;
25982;SDS011;13773;48.868;10.730;2023-06-22T11:00:38;8.02;;;4.75;;
25982;SDS011;13773;48.868;10.730;2023-06-22T11:03:04;9.90;;;5.43;;
25982;SDS011;13773;48.868;10.730;2023-06-22T11:05:30;10.18;;;5.45;;
25982;SDS011;13773;48.868;10.730;2023-06-22T11:07:57;6.93;;;4.70;;
25982;SDS011;13773;48.868;10.730;2023-06-22T11:10:22;9.68;;;5.22;;
25982;SDS011;13773;48.868;10.730;2023-06-22T11:12:48;10.43;;;5.30;;
25982;SDS011;13773;48.868;10.730;2023-06-22T11:15:14;8.00;;;5.03;;
25982;SDS011;13773;48.868;10.730;2023-06-22T11:17:40;8.35;;;5.10;;
25982;SDS011;13773;48.868;10.730;2023-06-22T11:20:05;7.32;;;4.88;;
25982;SDS011;13773;48.868;10.730;2023-06-22T11:22:36;7.95;;;5.45;;
25982;SDS011;13773;48.868;10.730;2023-06-22T11:25:07;7.90;;;5.53;;
25982;SDS011;13773;48.868;10.730;2023-06-22T11:27:34;8.70;;;5.05;;
25982;SDS011;13773;48.868;10.730;2023-06-22T11:29:59;13.55;;;5.70;;
25982;SDS011;13773;48.868;10.730;2023-06-22T11:32:27;8.23;;;4.80;;
25982;SDS011;13773;48.868;10.730;2023-06-22T11:34:53;9.43;;;4.90;;
25982;SDS011;13773;48.868;10.730;2023-06-22T11:37:18;9.15;;;5.68;;
25982;SDS011;13773;48.868;10.730;2023-06-22T11:39:44;9.70;;;5.97;;
25982;SDS011;13773;48.868;10.730;2023-06-22T11:42:10;9.10;;;5.90;;
25982;SDS011;13773;48.868;10.730;2023-06-22T11:44:36;8.50;;;5.38;;
25982;SDS011;13773;48.868;10.730;2023-06-22T11:47:02;11.35;;;6.13;;
25982;SDS011;13773;48.868;10.730;2023-06-22T11:49:29;11.00;;;5.32;;
25982;SDS011;13773;48.868;10.730;2023-06-22T11:51:56;8.20;;;5.40;;
25982;SDS011;13773;48.868;10.730;2023-06-22T11:54:21;12.70;;;5.60;;
25982;SDS011;13773;48.868;10.730;2023-06-22T11:56:47;9.23;;;5.20;;
25982;SDS011;13773;48.868;10.730;2023-06-22T11:59:13;9.70;;;5.28;;
25982;SDS011;13773;48.868;10.730;2023-06-22T12:01:39;10.30;;;5.18;;
25982;SDS011;13773;48.868;10.730;2023-06-22T12:04:04;8.52;;;5.95;;
25982;SDS011;13773;48.868;10.730;2023-06-22T12:06:31;10.93;;;5.20;;
25982;SDS011;13773;48.868;10.730;2023-06-22T12:08:58;9.93;;;4.93;;
25982;SDS011;13773;48.868;10.730;2023-06-22T12:11:24;10.32;;;5.78;;
25982;SDS011;13773;48.868;10.730;2023-06-22T12:13:49;8.25;;;4.70;;
25982;SDS011;13773;48.868;10.730;2023-06-22T12:16:15;12.10;;;5.97;;
25982;SDS011;13773;48.868;10.730;2023-06-22T12:18:41;9.70;;;5.22;;
25982;SDS011;13773;48.868;10.730;2023-06-22T12:21:07;14.95;;;5.28;;
25982;SDS011;13773;48.868;10.730;2023-06-22T12:23:33;9.13;;;5.45;;
25982;SDS011;13773;48.868;10.730;2023-06-22T12:25:58;10.57;;;5.43;;
25982;SDS011;13773;48.868;10.730;2023-06-22T12:28:26;7.25;;;5.32;;
25982;SDS011;13773;48.868;10.730;2023-06-22T12:30:52;6.57;;;4.95;;
25982;SDS011;13773;48.868;10.730;2023-06-22T12:33:17;10.55;;;5.45;;
25982;SDS011;13773;48.868;10.730;2023-06-22T12:35:43;10.32;;;5.32;;
25982;SDS011;13773;48.868;10.730;2023-06-22T12:38:10;11.93;;;5.45;;
25982;SDS011;13773;48.868;10.730;2023-06-22T12:40:36;9.70;;;5.32;;
25982;SDS011;13773;48.868;10.730;2023-06-22T12:43:02;6.65;;;5.32;;
25982;SDS011;13773;48.868;10.730;2023-06-22T12:45:27;8.50;;;5.32;;
25982;SDS011;13773;48.868;10.730;2023-06-22T12:47:56;11.57;;;5.63;;
25982;SDS011;13773;48.868;10.730;2023-06-22T12:50:22;9.38;;;5.25;;
25982;SDS011;13773;48.868;10.730;2023-06-22T12:52:48;9.55;;;5.85;;
25982;SDS011;13773;48.868;10.730;2023-06-22T12:55:13;10.65;;;5.78;;
25982;SDS011;13773;48.868;10.730;2023-06-22T12:57:39;8.05;;;5.35;;
25982;SDS011;13773;48.868;10.730;2023-06-22T13:00:05;7.88;;;5.03;;
25982;SDS011;13773;48.868;10.730;2023-06-22T13:02:33;9.18;;;4.95;;
25982;SDS011;13773;48.868;10.730;2023-06-22T13:04:58;11.20;;;5.63;;
25982;SDS011;13773;48.868;10.730;2023-06-22T13:07:24;15.38;;;6.00;;
25982;SDS011;13773;48.868;10.730;2023-06-22T13:09:50;17.38;;;6.20;;
25982;SDS011;13773;48.868;10.730;2023-06-22T13:12:16;18.17;;;5.50;;
25982;SDS011;13773;48.868;10.730;2023-06-22T13:14:42;13.95;;;6.03;;
25982;SDS011;13773;48.868;10.730;2023-06-22T13:17:08;12.15;;;5.25;;
25982;SDS011;13773;48.868;10.730;2023-06-22T13:19:34;12.95;;;5.68;;
25982;SDS011;13773;48.868;10.730;2023-06-22T13:22:00;13.07;;;5.65;;
25982;SDS011;13773;48.868;10.730;2023-06-22T13:24:27;12.82;;;5.53;;
25982;SDS011;13773;48.868;10.730;2023-06-22T13:26:53;11.57;;;5.22;;
25982;SDS011;13773;48.868;10.730;2023-06-22T13:29:18;10.52;;;5.57;;
25982;SDS011;13773;48.868;10.730;2023-06-22T13:31:44;12.25;;;5.05;;
25982;SDS011;13773;48.868;10.730;2023-06-22T13:34:10;11.93;;;5.78;;
25982;SDS011;13773;48.868;10.730;2023-06-22T13:36:35;9.00;;;5.35;;
25982;SDS011;13773;48.868;10.730;2023-06-22T13:39:01;11.93;;;5.30;;
25982;SDS011;13773;48.868;10.730;2023-06-22T13:41:30;11.68;;;5.97;;
25982;SDS011;13773;48.868;10.730;2023-06-22T13:43:57;9.77;;;5.75;;
25982;SDS011;13773;48.868;10.730;2023-06-22T13:46:22;12.15;;;5.65;;
25982;SDS011;13773;48.868;10.730;2023-06-22T13:48:48;12.43;;;6.00;;
25982;SDS011;13773;48.868;10.730;2023-06-22T13:51:14;11.73;;;5.55;;
25982;SDS011;13773;48.868;10.730;2023-06-22T13:53:39;13.13;;;6.13;;
25982;SDS011;13773;48.868;10.730;2023-06-22T13:56:05;8.82;;;5.47;;
25982;SDS011;13773;48.868;10.730;2023-06-22T13:58:31;14.02;;;5.43;;
25982;SDS011;13773;48.868;10.730;2023-06-22T14:00:56;9.57;;;4.95;;
25982;SDS011;13773;48.868;10.730;2023-06-22T14:03:22;9.50;;;5.63;;
25982;SDS011;13773;48.868;10.730;2023-06-22T14:05:48;9.85;;;5.13;;
25982;SDS011;13773;48.868;10.730;2023-06-22T14:08:14;10.38;;;5.43;;
25982;SDS011;13773;48.868;10.730;2023-06-22T14:10:39;11.77;;;5.60;;
25982;SDS011;13773;48.868;10.730;2023-06-22T14:13:12;15.15;;;5.50;;
25982;SDS011;13773;48.868;10.730;2023-06-22T14:15:38;22.63;;;7.15;;
25982;SDS011;13773;48.868;10.730;2023-06-22T14:18:03;13.80;;;6.07;;
25982;SDS011;13773;48.868;10.730;2023-06-22T14:20:29;12.82;;;5.70;;
25982;SDS011;13773;48.868;10.730;2023-06-22T14:22:54;11.02;;;5.75;;
25982;SDS011;13773;48.868;10.730;2023-06-22T14:25:20;8.75;;;5.63;;
25982;SDS011;13773;48.868;10.730;2023-06-22T14:27:46;12.00;;;6.35;;
25982;SDS011;13773;48.868;10.730;2023-06-22T14:30:12;10.82;;;5.55;;
25982;SDS011;13773;48.868;10.730;2023-06-22T14:32:38;10.02;;;6.25;;